Time;durP1;ratioP1;P1;durP2;ratioP2;P2;SDS_P1;SDS_P2;PMS_P1;PMS_P2;Temp;Humidity;BMP_temperature;BMP_pressure;BME280_temperature;BME280_humidity;BME280_pressure;Samples;Min_cycle;Max_cycle;Signal;HPM_P1;HPM_P2
2023/12/31 00:00:11;;;;;;;30.08;8.55;;;8.10;99.90;;;;;;5113721;28;20023;-74
2023/12/31 00:02:37;;;;;;;34.63;8.57;;;8.00;99.90;;;;;;5113121;28;20015;-76
2023/12/31 00:05:03;;;;;;;32.80;8.20;;;8.00;99.90;;;;;;5112978;28;20019;-76
2023/12/31 00:07:29;;;;;;;23.92;7.65;;;8.00;99.90;;;;;;5113249;28;20031;-75
2023/12/31 00:09:55;;;;;;;32.85;7.50;;;7.90;99.90;;;;;;5113013;28;20027;-76
2023/12/31 00:12:21;;;;;;;30.25;7.63;;;7.90;99.90;;;;;;5112888;28;20020;-76
2023/12/31 00:14:46;;;;;;;28.88;8.25;;;7.90;99.90;;;;;;5094623;28;20612;-77
2023/12/31 00:17:12;;;;;;;28.08;8.45;;;7.90;99.90;;;;;;5112992;28;20035;-77
2023/12/31 00:19:38;;;;;;;28.13;7.90;;;7.80;99.90;;;;;;5112857;28;20059;-76
2023/12/31 00:22:03;;;;;;;29.00;8.60;;;7.80;99.90;;;;;;5112611;28;20650;-76
2023/12/31 00:24:29;;;;;;;35.50;9.52;;;7.80;99.90;;;;;;5112595;28;20032;-76
2023/12/31 00:26:54;;;;;;;37.28;8.07;;;7.80;99.90;;;;;;5112557;28;20016;-76
2023/12/31 00:29:20;;;;;;;23.60;7.75;;;7.80;99.90;;;;;;5112495;28;20544;-75
2023/12/31 00:31:45;;;;;;;31.00;8.23;;;7.70;99.90;;;;;;5111907;28;20047;-74
2023/12/31 00:34:11;;;;;;;28.77;8.57;;;7.70;99.90;;;;;;5112530;28;20020;-75
2023/12/31 00:36:37;;;;;;;27.65;7.70;;;7.70;99.90;;;;;;5112404;28;20027;-75
2023/12/31 00:39:03;;;;;;;29.33;9.30;;;7.70;99.90;;;;;;5112293;28;20031;-75
2023/12/31 00:41:28;;;;;;;24.23;6.70;;;7.60;99.90;;;;;;5112209;28;20030;-74
2023/12/31 00:43:54;;;;;;;30.33;8.32;;;7.70;99.90;;;;;;5113348;28;20032;-75
2023/12/31 00:46:20;;;;;;;29.10;7.43;;;7.60;99.90;;;;;;5097096;28;20016;-75
2023/12/31 00:48:45;;;;;;;32.35;8.15;;;7.60;99.90;;;;;;5115297;28;20031;-76
2023/12/31 00:51:11;;;;;;;29.00;8.30;;;7.60;99.90;;;;;;5115771;28;20046;-75
2023/12/31 00:53:36;;;;;;;23.77;7.65;;;7.60;99.90;;;;;;5114691;28;20019;-75
2023/12/31 00:56:03;;;;;;;28.33;7.30;;;7.50;99.90;;;;;;5112323;28;20457;-76
2023/12/31 00:58:28;;;;;;;27.38;8.13;;;7.50;99.90;;;;;;5112072;28;20111;-75
2023/12/31 01:00:54;;;;;;;33.80;7.65;;;7.50;99.90;;;;;;5112111;28;20051;-76
2023/12/31 01:03:19;;;;;;;38.50;8.70;;;7.50;99.90;;;;;;5093448;28;20023;-75
2023/12/31 01:05:45;;;;;;;29.67;7.68;;;7.50;99.90;;;;;;5111971;28;20024;-76
2023/12/31 01:08:11;;;;;;;26.02;7.40;;;7.50;99.90;;;;;;5112134;28;20078;-75
2023/12/31 01:10:36;;;;;;;31.52;7.50;;;7.50;99.90;;;;;;5114443;28;20034;-75
2023/12/31 01:13:02;;;;;;;33.67;7.18;;;7.50;99.90;;;;;;5112840;28;20028;-76
2023/12/31 01:15:28;;;;;;;27.38;6.82;;;7.50;99.90;;;;;;5112316;28;20023;-76
2023/12/31 01:17:54;;;;;;;35.33;6.32;;;7.50;99.90;;;;;;5111973;28;20363;-75
2023/12/31 01:20:20;;;;;;;21.35;6.32;;;7.60;99.90;;;;;;5112188;28;20030;-77
2023/12/31 01:22:45;;;;;;;18.77;6.22;;;7.50;99.90;;;;;;5112392;28;20383;-78
2023/12/31 01:25:11;;;;;;;30.20;6.75;;;7.60;99.90;;;;;;5112146;28;20076;-76
2023/12/31 01:27:36;;;;;;;25.70;6.35;;;7.50;99.90;;;;;;5112020;28;20024;-75
2023/12/31 01:30:03;;;;;;;24.92;6.72;;;7.50;99.90;;;;;;5111969;28;20163;-76
2023/12/31 01:32:28;;;;;;;21.40;6.15;;;7.50;99.90;;;;;;5111844;28;20390;-76
2023/12/31 01:34:58;;;;;;;29.63;6.00;;;7.50;99.90;;;;;;5111669;28;20031;-75
2023/12/31 01:37:23;;;;;;;29.13;6.30;;;7.50;99.90;;;;;;5111747;28;20023;-75
2023/12/31 01:39:49;;;;;;;25.15;5.82;;;7.40;99.90;;;;;;5111608;28;20024;-75
2023/12/31 01:42:15;;;;;;;22.55;6.18;;;7.50;99.90;;;;;;5112469;28;20028;-75
2023/12/31 01:44:40;;;;;;;21.08;5.60;;;7.50;99.90;;;;;;5115413;28;20030;-75
2023/12/31 01:47:06;;;;;;;24.73;5.53;;;7.50;99.90;;;;;;5115692;28;20073;-75
2023/12/31 01:49:33;;;;;;;25.25;6.05;;;7.40;99.90;;;;;;5115452;28;20625;-75
2023/12/31 01:51:59;;;;;;;27.27;6.88;;;7.50;99.90;;;;;;5115225;28;20439;-75
2023/12/31 01:54:26;;;;;;;23.02;6.13;;;7.50;99.90;;;;;;5115440;28;20047;-76
2023/12/31 01:56:53;;;;;;;26.95;6.45;;;7.50;99.90;;;;;;5115590;28;20103;-77
2023/12/31 01:59:19;;;;;;;30.70;6.57;;;7.50;99.90;;;;;;5115286;28;20037;-75
2023/12/31 02:01:46;;;;;;;22.42;5.85;;;7.60;99.90;;;;;;5114986;28;20106;-76
2023/12/31 02:04:12;;;;;;;25.85;6.22;;;7.50;99.90;;;;;;5114929;28;20210;-75
2023/12/31 02:06:39;;;;;;;22.13;6.25;;;7.50;99.90;;;;;;5115159;28;20020;-75
2023/12/31 02:09:06;;;;;;;27.25;6.38;;;7.50;99.90;;;;;;5114967;28;20032;-74
2023/12/31 02:11:33;;;;;;;24.48;5.82;;;7.50;99.90;;;;;;5114881;28;20478;-75
2023/12/31 02:13:58;;;;;;;36.55;6.22;;;7.50;99.90;;;;;;5115306;28;20036;-74
2023/12/31 02:16:25;;;;;;;22.02;5.45;;;7.50;99.90;;;;;;5115069;28;20026;-76
2023/12/31 02:18:50;;;;;;;26.73;5.07;;;7.50;99.90;;;;;;5116679;28;20027;-75
2023/12/31 02:21:16;;;;;;;23.73;4.72;;;7.50;99.90;;;;;;5117267;28;20102;-75
2023/12/31 02:23:43;;;;;;;26.83;5.50;;;7.50;99.90;;;;;;5116179;28;20023;-76
2023/12/31 02:26:10;;;;;;;18.90;4.82;;;7.50;99.90;;;;;;5116570;28;20032;-75
2023/12/31 02:28:36;;;;;;;21.55;5.00;;;7.60;99.90;;;;;;5117682;28;20474;-76
2023/12/31 02:31:06;;;;;;;23.40;5.00;;;7.60;99.90;;;;;;5096627;28;20058;-76
2023/12/31 02:33:32;;;;;;;19.38;4.93;;;7.60;99.90;;;;;;5116150;28;20447;-75
2023/12/31 02:35:58;;;;;;;15.02;5.18;;;7.50;99.90;;;;;;5114748;28;20058;-75
2023/12/31 02:38:24;;;;;;;22.77;5.20;;;7.60;99.90;;;;;;5114688;28;20020;-75
2023/12/31 02:40:49;;;;;;;21.75;5.60;;;7.60;99.90;;;;;;5116214;28;20493;-76
2023/12/31 02:43:15;;;;;;;20.65;5.05;;;7.60;99.90;;;;;;5101397;28;20082;-74
2023/12/31 02:45:41;;;;;;;25.40;5.18;;;7.60;99.90;;;;;;5095961;28;20017;-74
2023/12/31 02:48:07;;;;;;;18.02;4.55;;;7.60;99.90;;;;;;5106530;28;20472;-75
2023/12/31 02:50:32;;;;;;;23.48;5.00;;;7.70;99.90;;;;;;5114017;28;20370;-74
2023/12/31 02:52:58;;;;;;;16.63;4.68;;;7.60;99.90;;;;;;5112918;28;20027;-73
2023/12/31 02:55:24;;;;;;;15.95;4.28;;;7.70;99.90;;;;;;5114077;28;20024;-74
2023/12/31 02:57:49;;;;;;;31.58;4.97;;;7.70;99.90;;;;;;5096817;28;20058;-74
2023/12/31 03:00:15;;;;;;;20.77;5.00;;;7.70;99.90;;;;;;5115567;28;20023;-73
2023/12/31 03:02:41;;;;;;;16.17;4.85;;;7.60;99.90;;;;;;5113599;28;20028;-73
2023/12/31 03:05:07;;;;;;;15.32;4.55;;;7.60;99.90;;;;;;5114291;28;20028;-73
2023/12/31 03:07:34;;;;;;;20.70;4.30;;;7.60;99.90;;;;;;5114342;28;20027;-73
2023/12/31 03:09:59;;;;;;;21.05;4.72;;;7.70;99.90;;;;;;5115371;28;20038;-75
2023/12/31 03:12:25;;;;;;;16.20;4.25;;;7.70;99.90;;;;;;5112850;28;20019;-74
2023/12/31 03:14:51;;;;;;;14.27;4.13;;;7.60;99.90;;;;;;5113771;28;20035;-76
2023/12/31 03:17:16;;;;;;;23.42;4.93;;;7.70;99.90;;;;;;5113680;28;20033;-76
2023/12/31 03:19:42;;;;;;;19.83;4.68;;;7.70;99.90;;;;;;5113559;28;20061;-75
2023/12/31 03:22:07;;;;;;;20.13;4.10;;;7.80;99.90;;;;;;5112861;28;20031;-75
2023/12/31 03:24:33;;;;;;;19.73;4.57;;;7.80;99.90;;;;;;5113458;28;20042;-76
2023/12/31 03:26:59;;;;;;;17.50;4.53;;;7.80;99.90;;;;;;5113579;28;20024;-75
2023/12/31 03:29:24;;;;;;;16.67;4.13;;;7.90;99.90;;;;;;5113440;28;20036;-76
2023/12/31 03:31:50;;;;;;;14.68;3.75;;;7.90;99.90;;;;;;5112873;28;20087;-75
2023/12/31 03:34:15;;;;;;;17.55;4.03;;;7.90;99.90;;;;;;5112966;28;20394;-75
2023/12/31 03:36:41;;;;;;;20.38;4.15;;;7.80;99.90;;;;;;5113333;28;20133;-76
2023/12/31 03:39:07;;;;;;;20.80;4.00;;;7.80;99.90;;;;;;5112946;28;20034;-75
2023/12/31 03:41:32;;;;;;;14.07;3.58;;;7.80;99.90;;;;;;5112580;28;20103;-76
2023/12/31 03:43:59;;;;;;;14.23;3.53;;;7.90;99.90;;;;;;5113064;28;20023;-76
2023/12/31 03:46:25;;;;;;;19.50;4.30;;;7.80;99.90;;;;;;5113160;28;20024;-77
2023/12/31 03:48:50;;;;;;;20.10;4.10;;;7.80;99.90;;;;;;5112754;28;20500;-76
2023/12/31 03:51:16;;;;;;;17.30;4.20;;;7.80;99.90;;;;;;5112954;28;20028;-76
2023/12/31 03:53:42;;;;;;;20.42;4.10;;;7.70;99.90;;;;;;5112606;28;20055;-77
2023/12/31 03:56:10;;;;;;;17.40;4.13;;;7.80;99.90;;;;;;5113110;28;20048;-76
2023/12/31 03:58:37;;;;;;;16.77;4.28;;;7.70;99.90;;;;;;5113055;28;20019;-74
2023/12/31 04:01:03;;;;;;;16.10;4.00;;;7.70;99.90;;;;;;5113314;28;20226;-74
2023/12/31 04:03:28;;;;;;;23.23;5.00;;;7.70;99.90;;;;;;5112720;28;20035;-74
2023/12/31 04:05:54;;;;;;;15.38;4.25;;;7.70;99.90;;;;;;5112179;28;20023;-75
2023/12/31 04:08:19;;;;;;;17.02;4.05;;;7.70;99.90;;;;;;5112747;28;20061;-75
2023/12/31 04:10:45;;;;;;;14.15;3.80;;;7.60;99.90;;;;;;5112547;28;20027;-75
2023/12/31 04:13:11;;;;;;;15.93;4.60;;;7.70;99.90;;;;;;5112560;28;20023;-76
2023/12/31 04:15:36;;;;;;;14.43;4.25;;;7.70;99.90;;;;;;5112585;28;20486;-75
2023/12/31 04:18:02;;;;;;;15.35;4.43;;;7.60;99.90;;;;;;5112641;28;20036;-75
2023/12/31 04:20:28;;;;;;;15.95;4.90;;;7.60;99.90;;;;;;5094284;28;20118;-76
2023/12/31 04:22:53;;;;;;;21.70;4.57;;;7.70;99.90;;;;;;5112483;28;20108;-76
2023/12/31 04:25:19;;;;;;;16.65;4.10;;;7.60;99.90;;;;;;5112421;28;20039;-76
2023/12/31 04:27:45;;;;;;;18.33;4.32;;;7.60;99.90;;;;;;5112642;28;20024;-75
2023/12/31 04:30:12;;;;;;;20.73;4.95;;;7.70;99.90;;;;;;5109907;28;20012;-77
2023/12/31 04:32:38;;;;;;;17.25;3.75;;;7.70;99.90;;;;;;5106771;28;20510;-76
2023/12/31 04:35:04;;;;;;;17.77;4.63;;;7.60;99.90;;;;;;5093849;28;20028;-76
2023/12/31 04:37:30;;;;;;;15.65;4.00;;;7.60;99.90;;;;;;5110833;28;20030;-76
2023/12/31 04:39:56;;;;;;;15.07;3.17;;;7.70;99.90;;;;;;5107279;28;20020;-76
2023/12/31 04:42:22;;;;;;;18.27;3.70;;;7.70;99.90;;;;;;5098087;28;20035;-74
2023/12/31 04:44:47;;;;;;;18.55;4.03;;;7.70;99.90;;;;;;5099747;28;20024;-74
2023/12/31 04:47:13;;;;;;;19.48;3.50;;;7.70;99.90;;;;;;5109010;28;20027;-75
2023/12/31 04:49:38;;;;;;;15.93;4.15;;;7.60;99.90;;;;;;5113298;28;20055;-75
2023/12/31 04:52:04;;;;;;;18.25;4.05;;;7.70;99.90;;;;;;5115045;28;20334;-75
2023/12/31 04:54:30;;;;;;;21.15;4.80;;;7.70;99.90;;;;;;5114625;28;20035;-75
2023/12/31 04:56:55;;;;;;;14.23;3.50;;;7.60;99.90;;;;;;5112402;28;20028;-76
2023/12/31 04:59:21;;;;;;;15.07;3.38;;;7.60;99.90;;;;;;5114913;28;20120;-74
2023/12/31 05:01:50;;;;;;;12.88;3.90;;;7.70;99.90;;;;;;5112740;28;20032;-75
2023/12/31 05:04:15;;;;;;;12.55;3.35;;;7.60;99.90;;;;;;5113038;28;20168;-75
2023/12/31 05:06:41;;;;;;;15.05;3.40;;;7.50;99.90;;;;;;5113156;28;20047;-75
2023/12/31 05:09:08;;;;;;;15.75;3.38;;;7.40;99.90;;;;;;5094486;28;20486;-75
2023/12/31 05:11:34;;;;;;;13.88;3.72;;;7.60;99.90;;;;;;5112332;28;20509;-74
2023/12/31 05:14:00;;;;;;;18.42;3.78;;;7.50;99.90;;;;;;5092461;28;20034;-75
2023/12/31 05:16:31;;;;;;;18.50;4.22;;;7.60;99.90;;;;;;5112839;28;20707;-75
2023/12/31 05:18:57;;;;;;;17.88;4.20;;;7.40;99.90;;;;;;5097789;28;20049;-75
2023/12/31 05:21:22;;;;;;;21.85;4.18;;;7.60;99.90;;;;;;5115635;28;20431;-75
2023/12/31 05:23:48;;;;;;;11.30;3.40;;;7.50;99.90;;;;;;5114939;28;20356;-75
2023/12/31 05:26:14;;;;;;;17.45;4.20;;;7.60;99.90;;;;;;5114736;28;20035;-76
2023/12/31 05:28:40;;;;;;;18.75;3.90;;;7.50;99.90;;;;;;5114423;28;20076;-76
2023/12/31 05:31:06;;;;;;;24.25;3.75;;;7.50;99.90;;;;;;5114848;28;20119;-76
2023/12/31 05:33:31;;;;;;;19.08;3.80;;;7.40;99.90;;;;;;5114654;28;20047;-76
2023/12/31 05:35:57;;;;;;;17.58;3.22;;;7.60;99.90;;;;;;5114929;28;20023;-76
2023/12/31 05:38:22;;;;;;;14.60;3.67;;;7.50;99.90;;;;;;5115004;28;20073;-75
2023/12/31 05:40:48;;;;;;;15.05;3.95;;;7.60;99.90;;;;;;5113935;28;20027;-75
2023/12/31 05:43:13;;;;;;;9.98;3.03;;;7.50;99.90;;;;;;5114178;28;20019;-77
2023/12/31 05:45:39;;;;;;;12.18;3.40;;;7.50;99.90;;;;;;5118471;28;20513;-79
2023/12/31 05:48:05;;;;;;;19.92;3.35;;;7.50;99.90;;;;;;5114396;28;20024;-77
2023/12/31 05:50:31;;;;;;;20.23;4.78;;;7.50;99.90;;;;;;5103957;28;20024;-80
2023/12/31 05:52:56;;;;;;;21.30;3.60;;;7.50;99.90;;;;;;5119141;28;20062;-77
2023/12/31 05:55:22;;;;;;;14.50;3.75;;;7.50;99.90;;;;;;5106648;28;20555;-76
2023/12/31 05:57:48;;;;;;;17.13;3.67;;;7.50;99.90;;;;;;5108601;28;20072;-74
2023/12/31 06:00:14;;;;;;;17.58;3.75;;;7.60;99.90;;;;;;5106502;28;20072;-77
2023/12/31 06:02:40;;;;;;;13.25;3.40;;;7.50;99.90;;;;;;5111878;28;20339;-76
2023/12/31 06:05:06;;;;;;;16.05;3.80;;;7.50;99.90;;;;;;5098036;28;20028;-75
2023/12/31 06:07:32;;;;;;;20.90;3.90;;;7.40;99.90;;;;;;5110969;28;20343;-77
2023/12/31 06:09:58;;;;;;;15.88;3.33;;;7.40;99.90;;;;;;5097199;28;20035;-75
2023/12/31 06:12:24;;;;;;;15.15;3.58;;;7.40;99.90;;;;;;5101197;28;20035;-76
2023/12/31 06:14:49;;;;;;;14.13;3.22;;;7.40;99.90;;;;;;5102267;28;20061;-74
2023/12/31 06:17:15;;;;;;;14.48;3.38;;;7.40;99.90;;;;;;5104441;28;20031;-76
2023/12/31 06:19:40;;;;;;;11.85;3.67;;;7.30;99.90;;;;;;5108867;28;20100;-74
2023/12/31 06:22:06;;;;;;;15.10;3.67;;;7.40;99.90;;;;;;5104884;28;20028;-74
2023/12/31 06:24:32;;;;;;;17.45;3.65;;;7.40;99.90;;;;;;5106646;28;20043;-76
2023/12/31 06:26:59;;;;;;;11.82;2.80;;;7.40;99.90;;;;;;5125730;28;20042;-74
2023/12/31 06:29:24;;;;;;;13.30;3.30;;;7.40;99.90;;;;;;5118251;28;20034;-75
2023/12/31 06:31:50;;;;;;;11.68;3.10;;;7.40;99.90;;;;;;5107837;28;20035;-75
2023/12/31 06:34:16;;;;;;;9.18;2.78;;;7.40;99.90;;;;;;5122598;28;20084;-74
2023/12/31 06:36:42;;;;;;;14.55;3.88;;;7.30;99.90;;;;;;5108434;28;20031;-74
2023/12/31 06:39:09;;;;;;;14.38;3.20;;;7.40;99.90;;;;;;5116210;28;20031;-75
2023/12/31 06:41:35;;;;;;;13.88;3.38;;;7.40;99.90;;;;;;5104650;28;20586;-74
2023/12/31 06:44:01;;;;;;;12.45;3.53;;;7.40;99.90;;;;;;5102553;28;20052;-75
2023/12/31 06:46:26;;;;;;;14.85;3.42;;;7.50;99.90;;;;;;5103500;28;20122;-75
2023/12/31 06:48:52;;;;;;;11.65;3.35;;;7.50;99.90;;;;;;5097095;28;20498;-75
2023/12/31 06:51:18;;;;;;;9.80;2.72;;;7.50;99.90;;;;;;5100013;28;20024;-75
2023/12/31 06:53:43;;;;;;;17.20;3.95;;;7.50;99.90;;;;;;5108614;28;20168;-75
2023/12/31 06:56:09;;;;;;;16.25;3.90;;;7.60;99.90;;;;;;5102543;28;20023;-75
2023/12/31 06:58:36;;;;;;;14.30;3.17;;;7.50;99.90;;;;;;5108934;28;20398;-75
2023/12/31 07:01:05;;;;;;;21.70;3.72;;;7.40;99.90;;;;;;5097730;28;20268;-75
2023/12/31 07:03:31;;;;;;;10.80;3.17;;;7.50;99.90;;;;;;5109071;28;20090;-74
2023/12/31 07:05:57;;;;;;;19.38;4.03;;;7.50;99.90;;;;;;5107153;28;20056;-75
2023/12/31 07:08:23;;;;;;;12.98;3.35;;;7.40;99.90;;;;;;5115329;28;20023;-75
2023/12/31 07:10:52;;;;;;;17.83;4.03;;;7.50;99.90;;;;;;5116859;28;20106;-76
2023/12/31 07:13:18;;;;;;;13.05;3.38;;;7.40;99.90;;;;;;5111199;28;20015;-74
2023/12/31 07:15:44;;;;;;;15.75;3.53;;;7.30;99.90;;;;;;5116055;28;20088;-75
2023/12/31 07:18:10;;;;;;;13.20;3.75;;;7.40;99.90;;;;;;5117007;28;20548;-74
2023/12/31 07:20:35;;;;;;;13.73;3.83;;;7.30;99.90;;;;;;5115272;28;20019;-74
2023/12/31 07:23:01;;;;;;;12.70;3.08;;;7.40;99.90;;;;;;5099044;28;20038;-75
2023/12/31 07:25:28;;;;;;;14.55;3.90;;;7.40;99.90;;;;;;5110250;28;20565;-74
2023/12/31 07:27:54;;;;;;;13.32;3.92;;;7.40;99.90;;;;;;5110797;28;20063;-75
2023/12/31 07:30:20;;;;;;;16.95;3.80;;;7.40;99.90;;;;;;5093714;28;20024;-76
2023/12/31 07:32:46;;;;;;;12.30;3.03;;;7.40;99.90;;;;;;5099998;28;20016;-75
2023/12/31 07:35:11;;;;;;;14.10;3.25;;;7.40;99.90;;;;;;5112132;28;20027;-75
2023/12/31 07:37:38;;;;;;;11.60;3.20;;;7.40;99.90;;;;;;5107336;28;20037;-74
2023/12/31 07:40:06;;;;;;;12.90;3.35;;;7.50;99.90;;;;;;5093984;28;20562;-74
2023/12/31 07:42:31;;;;;;;15.05;3.47;;;7.40;99.90;;;;;;5101754;28;20054;-75
2023/12/31 07:44:57;;;;;;;16.33;3.33;;;7.40;99.90;;;;;;5106690;28;20514;-75
2023/12/31 07:47:22;;;;;;;10.90;3.65;;;7.40;99.90;;;;;;5100368;28;20035;-75
2023/12/31 07:49:48;;;;;;;15.55;4.70;;;7.30;99.90;;;;;;5096376;28;20026;-75
2023/12/31 07:52:15;;;;;;;15.15;4.50;;;7.30;99.90;;;;;;5110994;28;20031;-75
2023/12/31 07:54:40;;;;;;;13.82;3.40;;;7.40;99.90;;;;;;5108870;28;20024;-74
2023/12/31 07:57:06;;;;;;;11.55;3.10;;;7.40;99.90;;;;;;5111979;28;20050;-74
2023/12/31 07:59:31;;;;;;;8.95;3.17;;;7.40;99.90;;;;;;5102809;28;20027;-75
2023/12/31 08:02:04;;;;;;;14.63;3.47;;;7.50;99.90;;;;;;5050593;28;20953;-76
2023/12/31 08:04:29;;;;;;;9.30;3.45;;;7.40;99.90;;;;;;5046457;28;20160;-74
2023/12/31 08:06:55;;;;;;;13.68;3.35;;;7.50;99.90;;;;;;5055432;28;20025;-74
2023/12/31 08:09:21;;;;;;;9.95;3.15;;;7.50;99.90;;;;;;5049194;28;20559;-75
2023/12/31 08:11:46;;;;;;;11.75;3.30;;;7.40;99.90;;;;;;5043574;28;20400;-76
2023/12/31 08:14:12;;;;;;;16.00;3.67;;;7.40;99.90;;;;;;5052091;28;20033;-75
2023/12/31 08:16:38;;;;;;;18.65;3.95;;;7.40;99.90;;;;;;5040397;28;20022;-76
2023/12/31 08:19:04;;;;;;;13.73;3.22;;;7.50;99.90;;;;;;5051100;28;20066;-75
2023/12/31 08:21:30;;;;;;;14.80;3.25;;;7.40;99.90;;;;;;5042486;28;20025;-76
2023/12/31 08:23:56;;;;;;;10.95;3.17;;;7.50;99.90;;;;;;5047210;28;20079;-74
2023/12/31 08:26:21;;;;;;;10.68;3.10;;;7.50;99.90;;;;;;5047731;28;20534;-74
2023/12/31 08:28:47;;;;;;;13.50;3.30;;;7.50;99.90;;;;;;5047480;28;20056;-75
2023/12/31 08:31:16;;;;;;;14.40;3.15;;;7.50;99.90;;;;;;5047435;28;20033;-74
2023/12/31 08:33:42;;;;;;;10.35;3.05;;;7.50;99.90;;;;;;5047928;28;20041;-74
2023/12/31 08:36:08;;;;;;;13.27;3.42;;;7.50;99.90;;;;;;5048270;28;20151;-77
2023/12/31 08:38:33;;;;;;;12.32;2.97;;;7.50;99.90;;;;;;5047541;28;20141;-75
2023/12/31 08:40:59;;;;;;;20.00;4.13;;;7.50;99.90;;;;;;5047922;28;20029;-75
2023/12/31 08:43:25;;;;;;;8.48;3.15;;;7.50;99.90;;;;;;5046917;28;20021;-75
2023/12/31 08:45:51;;;;;;;11.00;3.13;;;7.50;99.90;;;;;;5045453;28;20040;-76
2023/12/31 08:48:21;;;;;;;12.57;3.00;;;7.50;99.90;;;;;;5048108;28;20025;-75
2023/12/31 08:50:47;;;;;;;18.98;3.53;;;7.40;99.90;;;;;;5047543;28;20059;-75
2023/12/31 08:53:13;;;;;;;9.00;3.33;;;7.50;99.90;;;;;;5047608;28;20048;-79
2023/12/31 08:55:38;;;;;;;13.95;3.53;;;7.40;99.90;;;;;;5045500;28;20025;-76
2023/12/31 08:58:04;;;;;;;16.67;5.68;;;7.40;99.90;;;;;;5046441;28;20037;-75
2023/12/31 09:00:32;;;;;;;10.80;3.53;;;7.40;99.90;;;;;;5047034;28;20021;-75
2023/12/31 09:02:59;;;;;;;12.75;3.53;;;7.50;99.90;;;;;;5046510;28;20049;-76
2023/12/31 09:05:24;;;;;;;12.68;3.33;;;7.50;99.90;;;;;;5045184;28;20022;-75
2023/12/31 09:07:50;;;;;;;12.82;4.05;;;7.40;99.90;;;;;;5046456;28;20024;-73
2023/12/31 09:10:16;;;;;;;12.35;3.95;;;7.50;99.90;;;;;;5046797;28;20117;-75
2023/12/31 09:12:42;;;;;;;12.60;3.63;;;7.40;99.90;;;;;;5037411;28;20029;-75
2023/12/31 09:15:08;;;;;;;18.35;4.90;;;7.40;99.90;;;;;;5033724;28;20492;-75
2023/12/31 09:17:35;;;;;;;15.60;3.53;;;7.40;99.90;;;;;;5034251;28;20053;-76
2023/12/31 09:20:05;;;;;;;16.30;4.10;;;7.50;99.90;;;;;;5033701;28;20025;-74
2023/12/31 09:22:31;;;;;;;13.10;3.40;;;7.50;99.90;;;;;;5032649;28;20362;-74
2023/12/31 09:24:56;;;;;;;15.32;4.28;;;7.50;99.90;;;;;;5033188;28;20032;-73
2023/12/31 09:27:22;;;;;;;14.18;4.20;;;7.40;99.90;;;;;;5032189;28;20100;-74
2023/12/31 09:29:47;;;;;;;20.08;4.13;;;7.50;99.90;;;;;;5032961;28;20017;-73
2023/12/31 09:32:13;;;;;;;16.67;4.10;;;7.50;99.90;;;;;;5032533;28;20033;-73
2023/12/31 09:34:39;;;;;;;12.63;3.75;;;7.50;99.90;;;;;;5032168;28;20025;-74
2023/12/31 09:37:05;;;;;;;10.23;3.90;;;7.60;99.90;;;;;;5033302;28;20021;-74
2023/12/31 09:39:30;;;;;;;12.80;4.07;;;7.50;99.90;;;;;;5033025;28;20064;-75
2023/12/31 09:42:09;;;;;;;9.95;3.35;;;7.50;99.90;;;;;;5032161;28;20033;-74
2023/12/31 09:44:35;;;;;;;11.27;3.40;;;7.50;99.90;;;;;;5033231;28;20064;-74
2023/12/31 09:47:08;;;;;;;19.63;4.95;;;7.60;99.90;;;;;;5032662;28;20431;-74
2023/12/31 09:49:35;;;;;;;10.43;3.45;;;7.60;99.90;;;;;;5032363;28;20021;-75
2023/12/31 09:52:03;;;;;;;13.75;3.70;;;7.70;99.90;;;;;;5032092;28;20060;-74
2023/12/31 09:54:30;;;;;;;21.20;4.35;;;7.70;99.90;;;;;;5032507;28;20059;-75
2023/12/31 09:56:57;;;;;;;11.75;3.83;;;7.70;99.90;;;;;;5032674;28;20033;-73
2023/12/31 09:59:25;;;;;;;10.20;3.35;;;7.80;99.90;;;;;;5033044;28;20021;-75
2023/12/31 10:01:56;;;;;;;21.90;4.32;;;7.70;99.90;;;;;;5031317;28;20037;-74
2023/12/31 10:04:22;;;;;;;12.98;3.47;;;7.70;99.90;;;;;;5032502;28;20037;-73
2023/12/31 10:06:50;;;;;;;11.27;3.78;;;7.70;99.90;;;;;;5032408;28;20294;-76
2023/12/31 10:09:18;;;;;;;13.95;3.47;;;7.80;99.90;;;;;;5037560;28;20043;-76
2023/12/31 10:11:45;;;;;;;11.50;3.17;;;7.80;99.90;;;;;;5037357;28;20021;-76
2023/12/31 10:14:12;;;;;;;12.40;3.80;;;7.80;99.90;;;;;;5036912;28;20044;-74
2023/12/31 10:16:43;;;;;;;11.63;3.75;;;7.90;99.90;;;;;;5041346;28;20034;-76
2023/12/31 10:19:10;;;;;;;12.70;3.78;;;7.90;99.90;;;;;;5046208;28;20049;-75
2023/12/31 10:21:36;;;;;;;11.52;2.80;;;7.90;99.90;;;;;;5043199;28;20032;-75
2023/12/31 10:24:02;;;;;;;12.25;3.38;;;7.90;99.90;;;;;;5033819;28;20022;-75
2023/12/31 10:26:28;;;;;;;9.48;3.30;;;7.90;99.90;;;;;;5032620;28;20493;-75
2023/12/31 10:28:54;;;;;;;15.95;3.92;;;7.80;99.90;;;;;;5032096;28;20037;-75
2023/12/31 10:31:21;;;;;;;13.55;3.60;;;7.90;99.90;;;;;;5032617;28;20025;-74
2023/12/31 10:33:47;;;;;;;15.90;3.80;;;7.90;99.90;;;;;;5031929;28;20028;-74
2023/12/31 10:36:13;;;;;;;14.35;4.00;;;7.90;99.90;;;;;;5032627;28;20021;-75
2023/12/31 10:38:49;;;;;;;15.98;4.32;;;7.90;99.90;;;;;;5032799;28;20572;-74
2023/12/31 10:41:20;;;;;;;20.45;4.75;;;7.90;99.90;;;;;;5032649;28;20028;-75
2023/12/31 10:43:49;;;;;;;8.90;3.08;;;7.90;99.90;;;;;;5032583;28;20022;-75
2023/12/31 10:46:18;;;;;;;9.27;3.60;;;7.90;99.90;;;;;;5033210;28;20552;-75
2023/12/31 10:49:05;;;;;;;15.95;4.18;;;8.00;99.90;;;;;;5032278;28;20030;-74
2023/12/31 10:51:35;;;;;;;7.28;3.22;;;8.00;99.90;;;;;;5032844;28;20137;-75
2023/12/31 10:54:06;;;;;;;10.82;3.70;;;8.10;99.90;;;;;;5033292;28;20040;-75
2023/12/31 10:56:32;;;;;;;13.48;4.18;;;8.00;99.90;;;;;;5033023;28;20112;-75
2023/12/31 10:58:58;;;;;;;12.40;3.75;;;8.10;99.90;;;;;;5033623;28;20392;-75
2023/12/31 11:01:25;;;;;;;11.65;3.78;;;8.10;99.90;;;;;;5031923;28;20026;-75
2023/12/31 11:03:55;;;;;;;10.77;4.00;;;8.10;99.90;;;;;;5032875;28;20047;-76
2023/12/31 11:06:22;;;;;;;7.18;3.30;;;8.20;99.90;;;;;;5031665;28;20030;-75
2023/12/31 11:08:49;;;;;;;10.40;3.70;;;8.10;99.90;;;;;;5032859;28;20032;-75
2023/12/31 11:11:16;;;;;;;7.93;3.13;;;8.10;99.90;;;;;;5031152;28;20029;-78
2023/12/31 11:13:46;;;;;;;10.00;3.25;;;8.10;99.90;;;;;;5032351;28;20049;-75
2023/12/31 11:16:27;;;;;;;12.10;3.67;;;8.10;99.90;;;;;;5032422;28;20037;-75
2023/12/31 11:19:26;;;;;;;12.07;3.75;;;8.20;99.90;;;;;;5031874;28;20026;-75
2023/12/31 11:22:09;;;;;;;21.75;4.28;;;8.20;99.90;;;;;;5032198;28;20500;-76
2023/12/31 11:24:35;;;;;;;9.27;3.70;;;8.20;99.90;;;;;;5031118;28;20143;-76
2023/12/31 11:27:15;;;;;;;17.75;4.13;;;8.20;99.90;;;;;;5031130;28;20100;-75
2023/12/31 11:29:43;;;;;;;7.22;3.08;;;8.20;99.90;;;;;;5031137;28;20140;-76
2023/12/31 11:32:09;;;;;;;9.55;3.25;;;8.30;99.90;;;;;;5032830;28;20477;-78
2023/12/31 11:34:41;;;;;;;7.25;3.17;;;8.30;99.90;;;;;;5033207;28;20021;-78
2023/12/31 11:37:07;;;;;;;16.45;7.15;;;8.30;99.90;;;;;;5034049;28;20036;-77
2023/12/31 11:39:33;;;;;;;6.07;2.75;;;8.40;99.90;;;;;;5033748;28;20496;-77
2023/12/31 11:42:07;;;;;;;12.65;3.70;;;8.40;99.90;;;;;;5032515;28;20033;-76
2023/12/31 11:44:36;;;;;;;;;;;8.50;99.90;;;;;;5030864;28;20029;-77
2023/12/31 11:47:02;;;;;;;11.80;3.13;;;8.50;99.90;;;;;;5029801;28;19912;-77
2023/12/31 11:49:27;;;;;;;8.40;2.83;;;8.70;99.90;;;;;;5031821;28;20017;-77
2023/12/31 11:51:58;;;;;;;5.65;2.65;;;8.70;99.90;;;;;;5030114;28;20033;-76
2023/12/31 11:54:34;;;;;;;8.27;3.38;;;8.80;99.90;;;;;;5034201;28;20063;-77
2023/12/31 11:57:00;;;;;;;7.78;3.20;;;8.90;99.90;;;;;;5038349;28;20051;-77
2023/12/31 11:59:26;;;;;;;11.20;2.72;;;9.00;99.90;;;;;;5036298;28;20041;-76
2023/12/31 12:01:53;;;;;;;10.73;3.00;;;8.90;99.90;;;;;;5030649;28;20025;-76
2023/12/31 12:04:19;;;;;;;11.77;3.22;;;9.00;99.90;;;;;;5034131;28;20093;-77
2023/12/31 12:06:45;;;;;;;6.90;3.00;;;9.30;99.90;;;;;;5033498;28;20103;-75
2023/12/31 12:09:11;;;;;;;8.85;2.95;;;9.80;99.90;;;;;;5032468;28;20017;-75
2023/12/31 12:11:43;;;;;;;8.38;2.70;;;10.30;98.10;;;;;;5033439;28;20109;-75
2023/12/31 12:14:12;;;;;;;8.93;3.25;;;10.50;94.50;;;;;;5030826;28;20124;-74
2023/12/31 12:16:40;;;;;;;10.25;2.88;;;10.80;91.90;;;;;;5030293;28;20068;-75
2023/12/31 12:19:06;;;;;;;10.88;3.15;;;10.90;88.90;;;;;;5029343;28;20022;-75
2023/12/31 12:21:32;;;;;;;10.48;3.00;;;10.80;90.80;;;;;;5029868;28;20033;-75
2023/12/31 12:23:58;;;;;;;6.95;2.83;;;10.90;89.40;;;;;;5029626;28;20028;-76
2023/12/31 12:26:25;;;;;;;11.23;3.10;;;;;;;;;;5030608;28;20029;-76
2023/12/31 12:28:53;;;;;;;6.55;3.10;;;;;;;;;;5030213;28;20535;-79
2023/12/31 12:31:19;;;;;;;10.20;2.88;;;;;;;;;;5030632;28;20491;-77
2023/12/31 12:33:52;;;;;;;11.32;2.90;;;;;;;;;;5029974;28;20061;-75
2023/12/31 12:36:18;;;;;;;6.78;2.85;;;;;;;;;;5029786;28;20029;-76
2023/12/31 12:38:45;;;;;;;10.43;3.05;;;;;;;;;;5030305;28;20033;-75
2023/12/31 12:41:12;;;;;;;6.63;2.88;;;;;;;;;;5031105;28;20033;-74
2023/12/31 12:43:38;;;;;;;9.95;3.40;;;;;;;;;;5030343;28;20030;-75
2023/12/31 12:46:06;;;;;;;10.60;3.60;;;;;;;;;;5030473;28;20021;-75